sensor_id;sensor_type;location;lat;lon;timestamp;temperature;humidity
6375;DHT22;35400;45.472;-122.822;2022-08-26T00:00:34;33.30;78.70
6375;DHT22;35400;45.472;-122.822;2022-08-26T00:03:01;33.30;77.30
6375;DHT22;35400;45.472;-122.822;2022-08-26T00:05:27;33.20;77.60
6375;DHT22;35400;45.472;-122.822;2022-08-26T00:07:54;33.20;77.70
6375;DHT22;35400;45.472;-122.822;2022-08-26T00:10:20;33.20;77.80
6375;DHT22;35400;45.472;-122.822;2022-08-26T00:12:47;33.20;77.00
6375;DHT22;35400;45.472;-122.822;2022-08-26T00:15:14;33.10;76.90
6375;DHT22;35400;45.472;-122.822;2022-08-26T00:17:40;33.20;77.00
6375;DHT22;35400;45.472;-122.822;2022-08-26T00:20:08;33.10;78.50
6375;DHT22;35400;45.472;-122.822;2022-08-26T00:22:36;33.10;78.10
6375;DHT22;35400;45.472;-122.822;2022-08-26T00:25:04;33.10;78.00
6375;DHT22;35400;45.472;-122.822;2022-08-26T00:27:31;33.10;77.70
6375;DHT22;35400;45.472;-122.822;2022-08-26T00:30:03;33.00;77.50
6375;DHT22;35400;45.472;-122.822;2022-08-26T00:32:32;33.00;76.80
6375;DHT22;35400;45.472;-122.822;2022-08-26T00:34:59;32.90;77.10
6375;DHT22;35400;45.472;-122.822;2022-08-26T00:37:26;32.90;76.60
6375;DHT22;35400;45.472;-122.822;2022-08-26T00:39:52;32.90;78.50
6375;DHT22;35400;45.472;-122.822;2022-08-26T00:42:20;32.90;76.40
6375;DHT22;35400;45.472;-122.822;2022-08-26T00:44:46;32.80;76.30
6375;DHT22;35400;45.472;-122.822;2022-08-26T00:47:32;32.70;76.70
6375;DHT22;35400;45.472;-122.822;2022-08-26T00:50:03;32.70;76.70
6375;DHT22;35400;45.472;-122.822;2022-08-26T00:52:30;32.70;76.20
6375;DHT22;35400;45.472;-122.822;2022-08-26T00:55:17;32.70;76.80
6375;DHT22;35400;45.472;-122.822;2022-08-26T00:57:47;32.60;75.70
6375;DHT22;35400;45.472;-122.822;2022-08-26T01:00:19;32.50;76.00
6375;DHT22;35400;45.472;-122.822;2022-08-26T01:02:47;32.50;75.90
6375;DHT22;35400;45.472;-122.822;2022-08-26T01:05:16;32.50;77.40
6375;DHT22;35400;45.472;-122.822;2022-08-26T01:07:43;32.40;75.50
6375;DHT22;35400;45.472;-122.822;2022-08-26T01:10:18;32.40;76.40
6375;DHT22;35400;45.472;-122.822;2022-08-26T01:12:51;32.30;77.00
6375;DHT22;35400;45.472;-122.822;2022-08-26T01:15:39;32.30;76.10
6375;DHT22;35400;45.472;-122.822;2022-08-26T01:18:07;32.20;76.60
6375;DHT22;35400;45.472;-122.822;2022-08-26T01:23:12;32.10;77.80
6375;DHT22;35400;45.472;-122.822;2022-08-26T01:25:44;32.10;77.70
6375;DHT22;35400;45.472;-122.822;2022-08-26T01:28:20;32.00;79.10
6375;DHT22;35400;45.472;-122.822;2022-08-26T01:30:49;32.00;78.80
6375;DHT22;35400;45.472;-122.822;2022-08-26T01:33:22;31.90;77.80
6375;DHT22;35400;45.472;-122.822;2022-08-26T01:35:52;31.90;78.00
6375;DHT22;35400;45.472;-122.822;2022-08-26T01:38:19;31.80;78.30
6375;DHT22;35400;45.472;-122.822;2022-08-26T01:40:46;31.80;78.30
6375;DHT22;35400;45.472;-122.822;2022-08-26T01:43:22;31.70;78.30
6375;DHT22;35400;45.472;-122.822;2022-08-26T01:45:50;31.60;78.20
6375;DHT22;35400;45.472;-122.822;2022-08-26T01:48:23;31.60;77.90
6375;DHT22;35400;45.472;-122.822;2022-08-26T01:50:52;31.50;79.50
6375;DHT22;35400;45.472;-122.822;2022-08-26T01:53:19;31.50;79.60
6375;DHT22;35400;45.472;-122.822;2022-08-26T01:55:47;31.40;79.40
6375;DHT22;35400;45.472;-122.822;2022-08-26T01:58:16;31.30;79.10
6375;DHT22;35400;45.472;-122.822;2022-08-26T02:00:45;31.30;81.10
6375;DHT22;35400;45.472;-122.822;2022-08-26T02:03:12;31.20;79.70
6375;DHT22;35400;45.472;-122.822;2022-08-26T02:05:45;31.20;79.30
6375;DHT22;35400;45.472;-122.822;2022-08-26T02:08:13;31.20;80.20
6375;DHT22;35400;45.472;-122.822;2022-08-26T02:10:42;31.10;80.40
6375;DHT22;35400;45.472;-122.822;2022-08-26T02:13:09;31.10;80.70
6375;DHT22;35400;45.472;-122.822;2022-08-26T02:15:40;31.00;81.80
6375;DHT22;35400;45.472;-122.822;2022-08-26T02:18:09;30.90;81.80
6375;DHT22;35400;45.472;-122.822;2022-08-26T02:20:36;30.80;79.70
6375;DHT22;35400;45.472;-122.822;2022-08-26T02:23:03;30.80;79.80
6375;DHT22;35400;45.472;-122.822;2022-08-26T02:27:59;30.60;80.10
6375;DHT22;35400;45.472;-122.822;2022-08-26T02:30:27;30.60;79.70
6375;DHT22;35400;45.472;-122.822;2022-08-26T02:32:54;30.60;80.70
6375;DHT22;35400;45.472;-122.822;2022-08-26T02:35:22;30.40;79.60
6375;DHT22;35400;45.472;-122.822;2022-08-26T02:37:50;30.30;80.60
6375;DHT22;35400;45.472;-122.822;2022-08-26T02:40:25;30.30;81.30
6375;DHT22;35400;45.472;-122.822;2022-08-26T02:42:52;30.10;80.50
6375;DHT22;35400;45.472;-122.822;2022-08-26T02:45:20;30.10;81.80
6375;DHT22;35400;45.472;-122.822;2022-08-26T02:47:47;30.00;81.00
6375;DHT22;35400;45.472;-122.822;2022-08-26T02:50:15;29.90;82.10
6375;DHT22;35400;45.472;-122.822;2022-08-26T02:52:42;29.80;79.80
6375;DHT22;35400;45.472;-122.822;2022-08-26T02:55:08;29.80;83.20
6375;DHT22;35400;45.472;-122.822;2022-08-26T02:57:35;29.70;82.30
6375;DHT22;35400;45.472;-122.822;2022-08-26T03:00:05;29.60;82.30
6375;DHT22;35400;45.472;-122.822;2022-08-26T03:02:32;29.50;81.90
6375;DHT22;35400;45.472;-122.822;2022-08-26T03:04:59;29.40;81.00
6375;DHT22;35400;45.472;-122.822;2022-08-26T03:07:25;29.40;83.00
6375;DHT22;35400;45.472;-122.822;2022-08-26T03:09:52;29.30;80.90
6375;DHT22;35400;45.472;-122.822;2022-08-26T03:12:19;29.20;79.80
6375;DHT22;35400;45.472;-122.822;2022-08-26T03:14:46;29.20;78.40
6375;DHT22;35400;45.472;-122.822;2022-08-26T03:17:13;29.10;79.20
6375;DHT22;35400;45.472;-122.822;2022-08-26T03:19:41;29.00;80.80
6375;DHT22;35400;45.472;-122.822;2022-08-26T03:22:08;29.30;93.60
6375;DHT22;35400;45.472;-122.822;2022-08-26T03:24:36;28.80;80.20
6375;DHT22;35400;45.472;-122.822;2022-08-26T03:27:02;28.70;77.50
6375;DHT22;35400;45.472;-122.822;2022-08-26T03:29:29;28.60;76.90
6375;DHT22;35400;45.472;-122.822;2022-08-26T03:32:14;28.50;76.60
6375;DHT22;35400;45.472;-122.822;2022-08-26T03:34:42;28.50;74.50
6375;DHT22;35400;45.472;-122.822;2022-08-26T03:37:08;28.40;74.90
6375;DHT22;35400;45.472;-122.822;2022-08-26T03:39:35;28.30;75.00
6375;DHT22;35400;45.472;-122.822;2022-08-26T03:42:02;28.30;75.50
6375;DHT22;35400;45.472;-122.822;2022-08-26T03:44:29;28.20;75.30
6375;DHT22;35400;45.472;-122.822;2022-08-26T03:46:56;28.10;76.00
6375;DHT22;35400;45.472;-122.822;2022-08-26T03:49:23;28.00;76.40
6375;DHT22;35400;45.472;-122.822;2022-08-26T03:51:50;28.00;76.70
6375;DHT22;35400;45.472;-122.822;2022-08-26T03:54:17;27.80;76.90
6375;DHT22;35400;45.472;-122.822;2022-08-26T03:56:43;27.80;76.70
6375;DHT22;35400;45.472;-122.822;2022-08-26T03:59:10;27.70;77.60
6375;DHT22;35400;45.472;-122.822;2022-08-26T04:01:37;27.70;77.80
6375;DHT22;35400;45.472;-122.822;2022-08-26T04:04:04;27.60;79.20
6375;DHT22;35400;45.472;-122.822;2022-08-26T04:06:38;27.60;74.70
6375;DHT22;35400;45.472;-122.822;2022-08-26T04:09:09;27.50;75.50
6375;DHT22;35400;45.472;-122.822;2022-08-26T04:11:36;27.40;74.90
6375;DHT22;35400;45.472;-122.822;2022-08-26T04:14:21;27.30;73.30
6375;DHT22;35400;45.472;-122.822;2022-08-26T04:16:50;27.30;72.00
6375;DHT22;35400;45.472;-122.822;2022-08-26T04:19:18;27.20;71.40
6375;DHT22;35400;45.472;-122.822;2022-08-26T04:21:47;27.10;71.50
6375;DHT22;35400;45.472;-122.822;2022-08-26T04:24:15;27.10;71.70
6375;DHT22;35400;45.472;-122.822;2022-08-26T04:26:42;27.00;71.80
6375;DHT22;35400;45.472;-122.822;2022-08-26T04:29:13;26.90;72.10
6375;DHT22;35400;45.472;-122.822;2022-08-26T04:31:40;26.80;72.20
6375;DHT22;35400;45.472;-122.822;2022-08-26T04:34:08;26.80;72.40
6375;DHT22;35400;45.472;-122.822;2022-08-26T04:36:35;26.70;72.70
6375;DHT22;35400;45.472;-122.822;2022-08-26T04:39:03;26.60;72.90
6375;DHT22;35400;45.472;-122.822;2022-08-26T04:41:30;26.60;73.50
6375;DHT22;35400;45.472;-122.822;2022-08-26T04:43:57;26.50;73.50
6375;DHT22;35400;45.472;-122.822;2022-08-26T04:46:25;26.40;73.80
6375;DHT22;35400;45.472;-122.822;2022-08-26T04:48:52;26.40;73.70
6375;DHT22;35400;45.472;-122.822;2022-08-26T04:51:20;26.30;73.70
6375;DHT22;35400;45.472;-122.822;2022-08-26T04:53:56;26.20;73.90
6375;DHT22;35400;45.472;-122.822;2022-08-26T04:56:30;26.10;74.80
6375;DHT22;35400;45.472;-122.822;2022-08-26T04:58:57;26.10;74.80
6375;DHT22;35400;45.472;-122.822;2022-08-26T05:01:24;26.00;75.50
6375;DHT22;35400;45.472;-122.822;2022-08-26T05:03:50;25.90;75.50
6375;DHT22;35400;45.472;-122.822;2022-08-26T05:06:18;25.80;75.50
6375;DHT22;35400;45.472;-122.822;2022-08-26T05:08:46;25.80;75.60
6375;DHT22;35400;45.472;-122.822;2022-08-26T05:11:13;25.70;75.60
6375;DHT22;35400;45.472;-122.822;2022-08-26T05:13:40;25.60;75.70
6375;DHT22;35400;45.472;-122.822;2022-08-26T05:16:11;25.60;76.20
6375;DHT22;35400;45.472;-122.822;2022-08-26T05:18:40;25.50;76.60
6375;DHT22;35400;45.472;-122.822;2022-08-26T05:21:13;25.40;77.00
6375;DHT22;35400;45.472;-122.822;2022-08-26T05:23:40;25.40;77.40
6375;DHT22;35400;45.472;-122.822;2022-08-26T05:26:08;25.30;78.10
6375;DHT22;35400;45.472;-122.822;2022-08-26T05:28:35;25.20;79.70
6375;DHT22;35400;45.472;-122.822;2022-08-26T05:31:17;25.20;80.70
6375;DHT22;35400;45.472;-122.822;2022-08-26T05:33:44;25.10;81.70
6375;DHT22;35400;45.472;-122.822;2022-08-26T05:36:17;25.00;82.40
6375;DHT22;35400;45.472;-122.822;2022-08-26T05:38:45;25.00;82.30
6375;DHT22;35400;45.472;-122.822;2022-08-26T05:41:23;24.90;82.30
6375;DHT22;35400;45.472;-122.822;2022-08-26T05:43:55;24.80;82.60
6375;DHT22;35400;45.472;-122.822;2022-08-26T05:46:23;24.80;83.00
6375;DHT22;35400;45.472;-122.822;2022-08-26T05:48:53;24.70;82.80
6375;DHT22;35400;45.472;-122.822;2022-08-26T05:51:21;24.60;82.50
6375;DHT22;35400;45.472;-122.822;2022-08-26T05:53:48;24.60;82.50
6375;DHT22;35400;45.472;-122.822;2022-08-26T05:56:16;24.50;82.70
6375;DHT22;35400;45.472;-122.822;2022-08-26T05:58:45;24.50;82.90
6375;DHT22;35400;45.472;-122.822;2022-08-26T06:01:16;24.40;83.30
6375;DHT22;35400;45.472;-122.822;2022-08-26T06:03:46;24.30;84.00
6375;DHT22;35400;45.472;-122.822;2022-08-26T06:06:19;24.20;84.90
6375;DHT22;35400;45.472;-122.822;2022-08-26T06:08:47;24.10;85.90
6375;DHT22;35400;45.472;-122.822;2022-08-26T06:11:16;24.10;86.80
6375;DHT22;35400;45.472;-122.822;2022-08-26T06:13:43;24.00;87.50
6375;DHT22;35400;45.472;-122.822;2022-08-26T06:16:13;23.90;88.10
6375;DHT22;35400;45.472;-122.822;2022-08-26T06:18:42;23.80;88.70
6375;DHT22;35400;45.472;-122.822;2022-08-26T06:21:23;23.80;89.40
6375;DHT22;35400;45.472;-122.822;2022-08-26T06:23:52;23.70;90.00
6375;DHT22;35400;45.472;-122.822;2022-08-26T06:26:38;23.60;90.10
6375;DHT22;35400;45.472;-122.822;2022-08-26T06:29:05;23.60;90.40
6375;DHT22;35400;45.472;-122.822;2022-08-26T06:31:33;23.50;90.60
6375;DHT22;35400;45.472;-122.822;2022-08-26T06:34:00;23.40;90.90
6375;DHT22;35400;45.472;-122.822;2022-08-26T06:36:27;23.40;91.20
6375;DHT22;35400;45.472;-122.822;2022-08-26T06:39:00;23.30;92.90
6375;DHT22;35400;45.472;-122.822;2022-08-26T06:41:26;23.20;92.00
6375;DHT22;35400;45.472;-122.822;2022-08-26T06:43:52;23.20;92.10
6375;DHT22;35400;45.472;-122.822;2022-08-26T06:46:20;23.10;91.80
6375;DHT22;35400;45.472;-122.822;2022-08-26T06:48:47;23.10;91.80
6375;DHT22;35400;45.472;-122.822;2022-08-26T06:51:15;23.00;91.90
6375;DHT22;35400;45.472;-122.822;2022-08-26T06:53:42;22.90;92.90
6375;DHT22;35400;45.472;-122.822;2022-08-26T06:56:12;22.90;93.00
6375;DHT22;35400;45.472;-122.822;2022-08-26T06:58:39;22.80;92.90
6375;DHT22;35400;45.472;-122.822;2022-08-26T07:01:23;22.80;93.60
6375;DHT22;35400;45.472;-122.822;2022-08-26T07:03:54;22.70;92.70
6375;DHT22;35400;45.472;-122.822;2022-08-26T07:06:22;22.60;92.70
6375;DHT22;35400;45.472;-122.822;2022-08-26T07:08:49;22.50;92.80
6375;DHT22;35400;45.472;-122.822;2022-08-26T07:11:16;22.50;93.10
6375;DHT22;35400;45.472;-122.822;2022-08-26T07:13:44;22.40;93.30
6375;DHT22;35400;45.472;-122.822;2022-08-26T07:16:11;22.40;94.60
6375;DHT22;35400;45.472;-122.822;2022-08-26T07:18:40;22.30;93.50
6375;DHT22;35400;45.472;-122.822;2022-08-26T07:21:08;22.30;93.40
6375;DHT22;35400;45.472;-122.822;2022-08-26T07:23:35;22.20;93.60
6375;DHT22;35400;45.472;-122.822;2022-08-26T07:26:12;22.10;93.50
6375;DHT22;35400;45.472;-122.822;2022-08-26T07:28:44;22.10;93.60
6375;DHT22;35400;45.472;-122.822;2022-08-26T07:31:11;22.00;93.70
6375;DHT22;35400;45.472;-122.822;2022-08-26T07:33:40;21.90;93.80
6375;DHT22;35400;45.472;-122.822;2022-08-26T07:36:09;21.90;93.80
6375;DHT22;35400;45.472;-122.822;2022-08-26T07:38:37;21.80;93.80
6375;DHT22;35400;45.472;-122.822;2022-08-26T07:41:04;21.70;93.70
6375;DHT22;35400;45.472;-122.822;2022-08-26T07:43:31;21.70;93.60
6375;DHT22;35400;45.472;-122.822;2022-08-26T07:45:59;21.60;93.50
6375;DHT22;35400;45.472;-122.822;2022-08-26T07:48:25;21.50;93.40
6375;DHT22;35400;45.472;-122.822;2022-08-26T07:50:52;21.50;93.60
6375;DHT22;35400;45.472;-122.822;2022-08-26T07:53:19;21.40;93.20
6375;DHT22;35400;45.472;-122.822;2022-08-26T07:55:47;21.30;93.20
6375;DHT22;35400;45.472;-122.822;2022-08-26T07:58:14;21.30;93.30
6375;DHT22;35400;45.472;-122.822;2022-08-26T08:00:41;21.30;93.40
6375;DHT22;35400;45.472;-122.822;2022-08-26T08:03:08;21.20;93.40
6375;DHT22;35400;45.472;-122.822;2022-08-26T08:05:35;21.10;93.40
6375;DHT22;35400;45.472;-122.822;2022-08-26T08:08:03;21.10;93.50
6375;DHT22;35400;45.472;-122.822;2022-08-26T08:10:30;21.00;93.70
6375;DHT22;35400;45.472;-122.822;2022-08-26T08:12:57;21.00;93.70
6375;DHT22;35400;45.472;-122.822;2022-08-26T08:15:24;20.90;93.70
6375;DHT22;35400;45.472;-122.822;2022-08-26T08:17:53;20.90;93.80
6375;DHT22;35400;45.472;-122.822;2022-08-26T08:20:20;20.80;93.80
6375;DHT22;35400;45.472;-122.822;2022-08-26T08:22:47;20.70;93.90
6375;DHT22;35400;45.472;-122.822;2022-08-26T08:25:15;20.70;94.00
6375;DHT22;35400;45.472;-122.822;2022-08-26T08:27:43;20.60;94.10
6375;DHT22;35400;45.472;-122.822;2022-08-26T08:30:17;20.60;94.30
6375;DHT22;35400;45.472;-122.822;2022-08-26T08:32:44;20.50;94.40
6375;DHT22;35400;45.472;-122.822;2022-08-26T08:35:14;20.50;94.60
6375;DHT22;35400;45.472;-122.822;2022-08-26T08:37:41;20.40;94.70
6375;DHT22;35400;45.472;-122.822;2022-08-26T08:40:09;20.30;94.70
6375;DHT22;35400;45.472;-122.822;2022-08-26T08:47:44;20.20;95.20
6375;DHT22;35400;45.472;-122.822;2022-08-26T08:50:36;20.10;95.50
6375;DHT22;35400;45.472;-122.822;2022-08-26T08:58:27;19.90;96.00
6375;DHT22;35400;45.472;-122.822;2022-08-26T09:00:59;19.90;95.80
6375;DHT22;35400;45.472;-122.822;2022-08-26T09:03:41;19.90;95.90
6375;DHT22;35400;45.472;-122.822;2022-08-26T09:06:11;19.80;96.40
6375;DHT22;35400;45.472;-122.822;2022-08-26T09:08:46;19.80;96.60
6375;DHT22;35400;45.472;-122.822;2022-08-26T09:11:14;19.70;96.50
6375;DHT22;35400;45.472;-122.822;2022-08-26T09:13:49;19.70;97.20
6375;DHT22;35400;45.472;-122.822;2022-08-26T09:19:03;19.60;98.30
6375;DHT22;35400;45.472;-122.822;2022-08-26T09:21:31;19.50;99.90
6375;DHT22;35400;45.472;-122.822;2022-08-26T09:23:58;19.50;98.80
6375;DHT22;35400;45.472;-122.822;2022-08-26T09:28:55;19.40;99.90
6375;DHT22;35400;45.472;-122.822;2022-08-26T09:31:26;19.40;99.90
6375;DHT22;35400;45.472;-122.822;2022-08-26T09:36:39;19.30;99.90
6375;DHT22;35400;45.472;-122.822;2022-08-26T09:39:11;19.30;99.90
6375;DHT22;35400;45.472;-122.822;2022-08-26T09:44:28;19.20;99.90
6375;DHT22;35400;45.472;-122.822;2022-08-26T09:46:57;19.10;99.90
6375;DHT22;35400;45.472;-122.822;2022-08-26T09:54:30;19.00;99.90
6375;DHT22;35400;45.472;-122.822;2022-08-26T09:57:18;19.00;99.90
6375;DHT22;35400;45.472;-122.822;2022-08-26T09:59:45;18.90;99.90
6375;DHT22;35400;45.472;-122.822;2022-08-26T10:02:36;18.90;99.90
6375;DHT22;35400;45.472;-122.822;2022-08-26T10:05:07;18.90;99.90
6375;DHT22;35400;45.472;-122.822;2022-08-26T10:07:46;18.80;99.90
6375;DHT22;35400;45.472;-122.822;2022-08-26T10:10:22;18.80;99.90
6375;DHT22;35400;45.472;-122.822;2022-08-26T10:12:52;18.70;99.90
6375;DHT22;35400;45.472;-122.822;2022-08-26T10:15:20;18.70;99.90
6375;DHT22;35400;45.472;-122.822;2022-08-26T10:17:49;18.70;99.90
6375;DHT22;35400;45.472;-122.822;2022-08-26T10:20:33;18.60;99.90
6375;DHT22;35400;45.472;-122.822;2022-08-26T10:23:08;18.60;99.90
6375;DHT22;35400;45.472;-122.822;2022-08-26T10:26:04;18.50;99.90
6375;DHT22;35400;45.472;-122.822;2022-08-26T10:28:40;18.50;99.90
6375;DHT22;35400;45.472;-122.822;2022-08-26T10:31:24;18.40;99.90
6375;DHT22;35400;45.472;-122.822;2022-08-26T10:33:53;18.40;99.90
6375;DHT22;35400;45.472;-122.822;2022-08-26T10:36:22;18.40;99.90
6375;DHT22;35400;45.472;-122.822;2022-08-26T10:39:13;18.30;99.90
6375;DHT22;35400;45.472;-122.822;2022-08-26T10:41:43;18.30;99.90
6375;DHT22;35400;45.472;-122.822;2022-08-26T10:44:11;18.20;99.90
6375;DHT22;35400;45.472;-122.822;2022-08-26T10:46:48;18.20;99.90
6375;DHT22;35400;45.472;-122.822;2022-08-26T10:49:16;18.20;99.90
6375;DHT22;35400;45.472;-122.822;2022-08-26T10:52:14;18.10;99.90
6375;DHT22;35400;45.472;-122.822;2022-08-26T10:57:42;18.10;99.90
6375;DHT22;35400;45.472;-122.822;2022-08-26T11:00:38;18.00;99.90
6375;DHT22;35400;45.472;-122.822;2022-08-26T11:08:59;17.90;99.90
6375;DHT22;35400;45.472;-122.822;2022-08-26T11:11:44;17.90;99.90
6375;DHT22;35400;45.472;-122.822;2022-08-26T11:14:30;17.80;99.90
6375;DHT22;35400;45.472;-122.822;2022-08-26T11:16:58;17.80;99.90
6375;DHT22;35400;45.472;-122.822;2022-08-26T11:22:06;17.80;99.90
6375;DHT22;35400;45.472;-122.822;2022-08-26T11:25:05;17.70;99.90
6375;DHT22;35400;45.472;-122.822;2022-08-26T11:35:11;17.60;99.90
6375;DHT22;35400;45.472;-122.822;2022-08-26T11:40:18;17.50;99.90
6375;DHT22;35400;45.472;-122.822;2022-08-26T11:42:52;17.50;99.90
6375;DHT22;35400;45.472;-122.822;2022-08-26T11:45:30;17.50;99.90
6375;DHT22;35400;45.472;-122.822;2022-08-26T11:48:27;17.40;99.90
6375;DHT22;35400;45.472;-122.822;2022-08-26T11:50:57;17.40;99.90
6375;DHT22;35400;45.472;-122.822;2022-08-26T11:53:27;17.40;99.90
6375;DHT22;35400;45.472;-122.822;2022-08-26T11:55:55;17.30;99.90
6375;DHT22;35400;45.472;-122.822;2022-08-26T11:58:24;17.30;99.90
6375;DHT22;35400;45.472;-122.822;2022-08-26T12:00:56;17.20;99.90
6375;DHT22;35400;45.472;-122.822;2022-08-26T12:03:38;17.20;99.90
6375;DHT22;35400;45.472;-122.822;2022-08-26T12:08:51;17.20;99.90
6375;DHT22;35400;45.472;-122.822;2022-08-26T12:11:22;17.10;99.90
6375;DHT22;35400;45.472;-122.822;2022-08-26T12:14:01;17.10;99.90
6375;DHT22;35400;45.472;-122.822;2022-08-26T12:16:31;17.10;99.90
6375;DHT22;35400;45.472;-122.822;2022-08-26T12:18:58;17.10;99.90
6375;DHT22;35400;45.472;-122.822;2022-08-26T12:21:29;17.00;99.90
6375;DHT22;35400;45.472;-122.822;2022-08-26T12:23:58;17.00;99.90
6375;DHT22;35400;45.472;-122.822;2022-08-26T12:26:29;17.00;99.90
6375;DHT22;35400;45.472;-122.822;2022-08-26T12:31:36;17.00;99.90
6375;DHT22;35400;45.472;-122.822;2022-08-26T12:34:06;16.90;99.90
6375;DHT22;35400;45.472;-122.822;2022-08-26T12:37:00;16.90;99.90
6375;DHT22;35400;45.472;-122.822;2022-08-26T12:39:30;16.90;99.90
6375;DHT22;35400;45.472;-122.822;2022-08-26T12:42:00;16.90;99.90
6375;DHT22;35400;45.472;-122.822;2022-08-26T12:44:45;16.90;99.90
6375;DHT22;35400;45.472;-122.822;2022-08-26T12:47:34;16.90;99.90
6375;DHT22;35400;45.472;-122.822;2022-08-26T12:55:23;16.90;99.90
6375;DHT22;35400;45.472;-122.822;2022-08-26T12:58:09;16.90;99.90
6375;DHT22;35400;45.472;-122.822;2022-08-26T13:00:39;16.90;99.90
6375;DHT22;35400;45.472;-122.822;2022-08-26T13:11:29;16.80;99.90
6375;DHT22;35400;45.472;-122.822;2022-08-26T13:14:13;16.80;99.90
6375;DHT22;35400;45.472;-122.822;2022-08-26T13:16:41;16.80;99.90
6375;DHT22;35400;45.472;-122.822;2022-08-26T13:19:11;16.80;99.90
6375;DHT22;35400;45.472;-122.822;2022-08-26T13:24:21;16.80;99.90
6375;DHT22;35400;45.472;-122.822;2022-08-26T13:26:49;16.80;99.90
6375;DHT22;35400;45.472;-122.822;2022-08-26T13:29:17;16.80;99.90
6375;DHT22;35400;45.472;-122.822;2022-08-26T13:31:45;16.80;99.90
6375;DHT22;35400;45.472;-122.822;2022-08-26T13:34:15;16.90;99.90
6375;DHT22;35400;45.472;-122.822;2022-08-26T13:36:43;16.80;99.90
6375;DHT22;35400;45.472;-122.822;2022-08-26T13:39:11;16.90;99.90
6375;DHT22;35400;45.472;-122.822;2022-08-26T13:41:38;16.90;99.90
6375;DHT22;35400;45.472;-122.822;2022-08-26T13:44:06;16.90;99.90
6375;DHT22;35400;45.472;-122.822;2022-08-26T13:46:33;16.90;99.90
6375;DHT22;35400;45.472;-122.822;2022-08-26T13:49:00;16.90;99.90
6375;DHT22;35400;45.472;-122.822;2022-08-26T13:51:28;16.90;99.90
6375;DHT22;35400;45.472;-122.822;2022-08-26T13:53:55;17.00;99.90
6375;DHT22;35400;45.472;-122.822;2022-08-26T13:56:25;17.00;99.90
6375;DHT22;35400;45.472;-122.822;2022-08-26T13:58:55;17.00;99.90
6375;DHT22;35400;45.472;-122.822;2022-08-26T14:01:23;17.10;99.90
6375;DHT22;35400;45.472;-122.822;2022-08-26T14:03:50;17.10;99.90
6375;DHT22;35400;45.472;-122.822;2022-08-26T14:06:17;17.10;99.90
6375;DHT22;35400;45.472;-122.822;2022-08-26T14:08:45;17.20;99.90
6375;DHT22;35400;45.472;-122.822;2022-08-26T14:11:12;17.20;99.90
6375;DHT22;35400;45.472;-122.822;2022-08-26T14:13:39;17.20;99.90
6375;DHT22;35400;45.472;-122.822;2022-08-26T14:16:11;17.30;99.90
6375;DHT22;35400;45.472;-122.822;2022-08-26T14:18:41;17.30;99.90
6375;DHT22;35400;45.472;-122.822;2022-08-26T14:21:11;17.30;99.90
6375;DHT22;35400;45.472;-122.822;2022-08-26T14:23:38;17.40;99.90
6375;DHT22;35400;45.472;-122.822;2022-08-26T14:26:08;17.40;99.90
6375;DHT22;35400;45.472;-122.822;2022-08-26T14:28:37;17.40;99.90
6375;DHT22;35400;45.472;-122.822;2022-08-26T14:31:04;17.50;99.90
6375;DHT22;35400;45.472;-122.822;2022-08-26T14:33:33;17.50;99.90
6375;DHT22;35400;45.472;-122.822;2022-08-26T14:36:07;17.50;99.90
6375;DHT22;35400;45.472;-122.822;2022-08-26T14:38:52;17.60;99.90
6375;DHT22;35400;45.472;-122.822;2022-08-26T14:41:20;17.60;99.90
6375;DHT22;35400;45.472;-122.822;2022-08-26T14:43:54;17.60;99.90
6375;DHT22;35400;45.472;-122.822;2022-08-26T14:46:24;17.60;99.90
6375;DHT22;35400;45.472;-122.822;2022-08-26T14:48:58;17.70;99.90
6375;DHT22;35400;45.472;-122.822;2022-08-26T14:51:25;17.70;99.90
6375;DHT22;35400;45.472;-122.822;2022-08-26T14:53:52;17.70;99.90
6375;DHT22;35400;45.472;-122.822;2022-08-26T14:56:59;17.80;99.90
6375;DHT22;35400;45.472;-122.822;2022-08-26T14:59:29;17.80;99.90
6375;DHT22;35400;45.472;-122.822;2022-08-26T15:01:57;17.80;99.90
6375;DHT22;35400;45.472;-122.822;2022-08-26T15:04:24;17.90;99.90
6375;DHT22;35400;45.472;-122.822;2022-08-26T15:06:52;17.90;99.90
6375;DHT22;35400;45.472;-122.822;2022-08-26T15:09:20;18.00;99.90
6375;DHT22;35400;45.472;-122.822;2022-08-26T15:11:47;18.00;99.90
6375;DHT22;35400;45.472;-122.822;2022-08-26T15:14:15;18.00;99.90
6375;DHT22;35400;45.472;-122.822;2022-08-26T15:16:42;18.00;99.90
6375;DHT22;35400;45.472;-122.822;2022-08-26T15:19:08;18.10;99.90
6375;DHT22;35400;45.472;-122.822;2022-08-26T15:21:36;18.10;99.90
6375;DHT22;35400;45.472;-122.822;2022-08-26T15:24:03;18.20;99.90
6375;DHT22;35400;45.472;-122.822;2022-08-26T15:26:32;18.20;99.90
6375;DHT22;35400;45.472;-122.822;2022-08-26T15:29:00;18.20;99.90
6375;DHT22;35400;45.472;-122.822;2022-08-26T15:31:28;18.30;99.90
6375;DHT22;35400;45.472;-122.822;2022-08-26T15:34:02;18.30;99.90
6375;DHT22;35400;45.472;-122.822;2022-08-26T15:36:30;18.30;99.90
6375;DHT22;35400;45.472;-122.822;2022-08-26T15:38:58;18.30;99.90
6375;DHT22;35400;45.472;-122.822;2022-08-26T15:41:26;18.40;99.90
6375;DHT22;35400;45.472;-122.822;2022-08-26T15:43:53;18.50;99.90
6375;DHT22;35400;45.472;-122.822;2022-08-26T15:46:20;18.50;99.90
6375;DHT22;35400;45.472;-122.822;2022-08-26T15:48:47;18.50;99.90
6375;DHT22;35400;45.472;-122.822;2022-08-26T15:51:27;18.50;99.90
6375;DHT22;35400;45.472;-122.822;2022-08-26T15:53:54;18.60;99.90
6375;DHT22;35400;45.472;-122.822;2022-08-26T15:56:26;18.60;99.90
6375;DHT22;35400;45.472;-122.822;2022-08-26T15:58:53;18.70;99.90
6375;DHT22;35400;45.472;-122.822;2022-08-26T16:01:22;18.70;99.90
6375;DHT22;35400;45.472;-122.822;2022-08-26T16:03:49;18.70;99.90
6375;DHT22;35400;45.472;-122.822;2022-08-26T16:06:19;18.70;99.90
6375;DHT22;35400;45.472;-122.822;2022-08-26T16:08:46;18.80;99.90
6375;DHT22;35400;45.472;-122.822;2022-08-26T16:11:13;18.80;99.90
6375;DHT22;35400;45.472;-122.822;2022-08-26T16:13:40;18.80;99.90
6375;DHT22;35400;45.472;-122.822;2022-08-26T16:16:07;18.90;99.90
6375;DHT22;35400;45.472;-122.822;2022-08-26T16:18:34;19.00;99.90
6375;DHT22;35400;45.472;-122.822;2022-08-26T16:21:00;19.00;99.90
6375;DHT22;35400;45.472;-122.822;2022-08-26T16:23:27;19.10;99.90
6375;DHT22;35400;45.472;-122.822;2022-08-26T16:25:55;19.20;99.90
6375;DHT22;35400;45.472;-122.822;2022-08-26T16:28:22;19.20;99.90
6375;DHT22;35400;45.472;-122.822;2022-08-26T16:30:48;19.30;99.90
6375;DHT22;35400;45.472;-122.822;2022-08-26T16:33:15;19.30;99.90
6375;DHT22;35400;45.472;-122.822;2022-08-26T16:35:43;19.40;99.90